Time;durP1;ratioP1;P1;durP2;ratioP2;P2;SDS_P1;SDS_P2;PMS_P1;PMS_P2;Temp;Humidity;BMP_temperature;BMP_pressure;BME280_temperature;BME280_humidity;BME280_pressure;Samples;Min_cycle;Max_cycle;Signal;HPM_P1;HPM_P2
2023/03/30 00:00:33;;;;;;;3.00;1.40;;;12.20;99.90;;;;;;5031234;28;20202;-83
2023/03/30 00:03:01;;;;;;;5.27;1.70;;;12.30;99.90;;;;;;5032830;28;20228;-83
2023/03/30 00:05:28;;;;;;;3.67;1.60;;;12.30;99.90;;;;;;5032823;28;20195;-83
2023/03/30 00:07:54;;;;;;;3.17;1.50;;;12.20;99.90;;;;;;5031575;28;20178;-84
2023/03/30 00:10:21;;;;;;;4.67;1.50;;;12.20;99.90;;;;;;5030937;28;20182;-83
2023/03/30 00:12:49;;;;;;;3.47;1.50;;;12.20;99.90;;;;;;5032816;28;20182;-86
2023/03/30 00:15:17;;;;;;;5.83;1.70;;;12.10;99.90;;;;;;5031305;28;20199;-83
2023/03/30 00:17:43;;;;;;;3.97;1.80;;;12.10;99.90;;;;;;5032850;28;20246;-86
2023/03/30 00:20:10;;;;;;;4.27;1.80;;;12.20;99.90;;;;;;5032047;28;20252;-84
2023/03/30 00:22:41;;;;;;;2.90;1.77;;;12.20;99.90;;;;;;5031269;28;20242;-83
2023/03/30 00:25:09;;;;;;;6.13;1.80;;;12.20;99.90;;;;;;5031127;28;20197;-86
2023/03/30 00:27:38;;;;;;;3.80;1.70;;;12.20;99.90;;;;;;5031585;28;20182;-83
2023/03/30 00:30:06;;;;;;;2.37;1.70;;;12.10;99.90;;;;;;5030794;28;20185;-83
2023/03/30 00:32:33;;;;;;;2.90;1.63;;;12.10;99.90;;;;;;5032426;28;20178;-83
2023/03/30 00:34:59;;;;;;;3.67;1.40;;;12.10;99.90;;;;;;5032233;28;20197;-83
2023/03/30 00:37:24;;;;;;;3.70;1.70;;;12.00;99.90;;;;;;5031054;28;20178;-83
2023/03/30 00:39:52;;;;;;;3.40;1.80;;;12.10;99.90;;;;;;5031940;28;20259;-83
2023/03/30 00:42:18;;;;;;;2.57;1.60;;;12.10;99.90;;;;;;5030959;28;20173;-83
2023/03/30 00:45:08;;;;;;;3.00;1.50;;;12.10;99.90;;;;;;5030907;28;20217;-86
2023/03/30 00:47:42;;;;;;;3.00;1.60;;;12.10;99.90;;;;;;5030983;28;20185;-83
2023/03/30 00:50:09;;;;;;;3.10;1.70;;;12.20;99.90;;;;;;5030368;28;20183;-83
2023/03/30 00:52:36;;;;;;;3.23;1.40;;;12.20;99.90;;;;;;5030974;28;20178;-83
2023/03/30 00:55:04;;;;;;;2.63;1.77;;;12.10;99.90;;;;;;5032100;28;20213;-83
2023/03/30 00:57:32;;;;;;;3.50;1.80;;;12.10;99.90;;;;;;5030862;28;20213;-83
2023/03/30 00:59:58;;;;;;;2.13;1.80;;;12.10;99.90;;;;;;5031516;28;20248;-83
2023/03/30 01:02:24;;;;;;;2.87;1.57;;;12.10;99.90;;;;;;5032035;28;20600;-83
2023/03/30 01:04:55;;;;;;;4.33;1.50;;;12.20;99.90;;;;;;5030770;28;20575;-83
2023/03/30 01:07:23;;;;;;;4.30;1.67;;;12.20;99.90;;;;;;5032926;28;20253;-83
2023/03/30 01:09:50;;;;;;;3.97;1.53;;;12.20;99.90;;;;;;5034748;28;20178;-83
2023/03/30 01:12:16;;;;;;;3.47;1.70;;;12.20;99.90;;;;;;5034798;28;20268;-83
2023/03/30 01:14:41;;;;;;;2.90;1.60;;;12.20;99.90;;;;;;5034685;28;20281;-83
2023/03/30 01:17:07;;;;;;;5.63;1.80;;;12.10;99.90;;;;;;5034744;28;20174;-84
2023/03/30 01:20:08;;;;;;;4.07;1.83;;;12.00;99.90;;;;;;5036007;28;20244;-83
2023/03/30 01:23:18;;;;;;;6.93;1.80;;;11.90;99.90;;;;;;5034632;28;20591;-84
2023/03/30 01:25:59;;;;;;;4.90;1.97;;;11.80;99.90;;;;;;5027073;28;20239;-83
2023/03/30 01:28:40;;;;;;;3.83;1.80;;;11.90;99.90;;;;;;5034601;28;20170;-83
2023/03/30 01:31:33;;;;;;;4.70;1.70;;;11.80;99.90;;;;;;5034118;28;20641;-83
2023/03/30 01:34:38;;;;;;;3.53;1.80;;;11.70;99.90;;;;;;5035815;28;20198;-83
2023/03/30 01:37:22;;;;;;;6.63;1.80;;;11.70;99.90;;;;;;5034641;28;20170;-83
2023/03/30 01:40:28;;;;;;;3.23;1.70;;;11.80;99.90;;;;;;5035115;28;20194;-83
2023/03/30 01:43:00;;;;;;;4.37;1.80;;;11.80;99.90;;;;;;5032100;28;20182;-83
2023/03/30 01:45:31;;;;;;;6.47;1.90;;;11.70;99.90;;;;;;5034225;28;20194;-83
2023/03/30 01:48:32;;;;;;;4.90;1.63;;;11.60;99.90;;;;;;5035440;28;20590;-84
2023/03/30 01:51:11;;;;;;;5.63;2.03;;;11.40;99.90;;;;;;5033635;28;20174;-83
2023/03/30 01:53:43;;;;;;;4.87;1.90;;;11.30;99.90;;;;;;5034214;28;20224;-83
2023/03/30 01:56:18;;;;;;;3.67;1.73;;;11.20;99.90;;;;;;5034171;28;20359;-84
2023/03/30 01:58:55;;;;;;;3.77;1.70;;;11.20;99.90;;;;;;5035231;28;20182;-83
2023/03/30 02:01:22;;;;;;;5.17;1.77;;;11.10;99.90;;;;;;5033609;28;20198;-83
2023/03/30 02:03:52;;;;;;;4.23;2.00;;;11.00;99.90;;;;;;5033860;28;20170;-83
2023/03/30 02:06:42;;;;;;;5.30;1.67;;;10.90;99.90;;;;;;5033964;28;20228;-83
2023/03/30 02:09:14;;;;;;;2.90;1.90;;;10.90;99.90;;;;;;5033767;28;20173;-84
2023/03/30 02:11:43;;;;;;;4.63;1.90;;;10.70;99.90;;;;;;5033298;28;20181;-86
2023/03/30 02:14:10;;;;;;;3.80;1.70;;;10.80;99.90;;;;;;5033674;28;20198;-84
2023/03/30 02:16:46;;;;;;;4.13;1.87;;;10.70;99.90;;;;;;5033773;28;20222;-83
2023/03/30 02:19:14;;;;;;;3.33;1.70;;;10.70;99.90;;;;;;5033765;28;20175;-83
2023/03/30 02:21:41;;;;;;;4.90;1.87;;;10.70;99.90;;;;;;5033212;28;20170;-86
2023/03/30 02:24:16;;;;;;;5.57;2.10;;;10.60;99.90;;;;;;5034885;28;20192;-83
2023/03/30 02:26:45;;;;;;;6.60;1.70;;;10.50;99.90;;;;;;5033615;28;20181;-83
2023/03/30 02:29:11;;;;;;;3.03;1.67;;;10.40;99.90;;;;;;5034863;28;20177;-84
2023/03/30 02:31:37;;;;;;;6.93;2.07;;;10.40;99.90;;;;;;5034242;28;20174;-83
2023/03/30 02:34:27;;;;;;;3.67;1.83;;;10.40;99.90;;;;;;5034411;28;20273;-83
2023/03/30 02:37:14;;;;;;;6.00;2.00;;;10.40;99.90;;;;;;5033539;28;20175;-83
2023/03/30 02:40:19;;;;;;;6.13;1.90;;;10.70;99.90;;;;;;5034051;28;20198;-83
2023/03/30 02:43:14;;;;;;;6.53;1.90;;;10.80;99.90;;;;;;5032943;28;20198;-83
2023/03/30 02:45:58;;;;;;;5.30;1.93;;;10.90;99.90;;;;;;5033355;28;20191;-83
2023/03/30 02:49:01;;;;;;;6.30;1.93;;;10.90;99.90;;;;;;5033067;28;20197;-83
2023/03/30 02:51:47;;;;;;;5.43;2.07;;;11.20;99.90;;;;;;4997658;28;20236;-83
2023/03/30 02:54:40;;;;;;;4.20;1.90;;;11.30;99.90;;;;;;5056840;23;20205;-82
2023/03/30 02:57:29;;;;;;;5.23;1.93;;;11.40;99.90;;;;;;4996987;28;20191;-82
2023/03/30 02:59:57;;;;;;;5.63;1.90;;;11.60;99.90;;;;;;5014655;28;20211;-82
2023/03/30 03:02:30;;;;;;;5.40;1.97;;;11.60;99.90;;;;;;4997473;28;20224;-83
2023/03/30 03:04:56;;;;;;;4.00;1.80;;;11.70;99.90;;;;;;5022052;28;20275;-82
2023/03/30 03:07:24;;;;;;;3.63;1.73;;;11.70;99.90;;;;;;5017279;28;20719;-82
2023/03/30 03:09:49;;;;;;;3.67;1.87;;;11.80;99.90;;;;;;5016231;28;20660;-84
2023/03/30 03:12:15;;;;;;;7.00;2.17;;;11.70;99.90;;;;;;5016880;28;20342;-82
2023/03/30 03:14:42;;;;;;;4.70;1.90;;;11.70;99.90;;;;;;5017158;28;20205;-82
2023/03/30 03:17:08;;;;;;;4.37;2.10;;;11.60;99.90;;;;;;5034397;28;20178;-82
2023/03/30 03:19:34;;;;;;;6.20;1.93;;;11.70;99.90;;;;;;5015515;28;20235;-82
2023/03/30 03:21:59;;;;;;;7.00;2.03;;;11.70;99.90;;;;;;5032561;28;20567;-82
2023/03/30 03:24:25;;;;;;;7.60;2.10;;;11.60;99.90;;;;;;5034245;28;20297;-83
2023/03/30 03:26:50;;;;;;;4.37;1.90;;;11.60;99.90;;;;;;5034256;28;20269;-83
2023/03/30 03:29:16;;;;;;;3.93;2.43;;;11.60;99.90;;;;;;5016635;28;20177;-84
2023/03/30 03:31:42;;;;;;;2.77;1.60;;;11.60;99.90;;;;;;5015667;28;20208;-83
2023/03/30 03:34:07;;;;;;;4.83;2.00;;;11.60;99.90;;;;;;5016416;28;20167;-82
2023/03/30 03:36:33;;;;;;;5.33;1.90;;;11.50;99.90;;;;;;5034640;28;20174;-83
2023/03/30 03:38:59;;;;;;;5.77;2.13;;;11.40;99.90;;;;;;5034402;28;20170;-83
2023/03/30 03:41:25;;;;;;;5.17;2.63;;;11.30;99.90;;;;;;5032337;28;20206;-82
2023/03/30 03:43:50;;;;;;;7.07;2.20;;;11.20;99.90;;;;;;5034392;28;20184;-83
2023/03/30 03:46:16;;;;;;;5.77;2.10;;;11.00;99.90;;;;;;5016185;28;20201;-82
2023/03/30 03:48:41;;;;;;;7.67;2.43;;;10.90;99.90;;;;;;5034135;28;20231;-83
2023/03/30 03:51:08;;;;;;;4.27;2.20;;;10.90;99.90;;;;;;5015530;28;20185;-84
2023/03/30 03:53:33;;;;;;;4.13;2.50;;;10.80;99.90;;;;;;5034079;28;20167;-83
2023/03/30 03:55:59;;;;;;;4.97;2.10;;;10.90;99.90;;;;;;5034022;28;20213;-82
2023/03/30 03:58:25;;;;;;;7.97;2.30;;;10.90;99.90;;;;;;5016473;28;20228;-82
2023/03/30 04:00:56;;;;;;;5.37;2.10;;;10.90;99.90;;;;;;5033287;28;20202;-82
2023/03/30 04:03:21;;;;;;;8.43;2.30;;;11.00;99.90;;;;;;5016273;28;20716;-82
2023/03/30 04:05:47;;;;;;;3.50;2.00;;;11.00;99.90;;;;;;5016354;28;20199;-82
2023/03/30 04:08:13;;;;;;;6.77;2.20;;;11.00;99.90;;;;;;5033904;28;20237;-82
2023/03/30 04:10:40;;;;;;;5.13;2.20;;;10.90;99.90;;;;;;5033807;28;20262;-82
2023/03/30 04:13:05;;;;;;;6.70;2.40;;;11.00;99.90;;;;;;5034026;28;20170;-82
2023/03/30 04:15:32;;;;;;;3.97;2.17;;;11.00;99.90;;;;;;5033646;28;20746;-82
2023/03/30 04:17:57;;;;;;;3.70;2.03;;;10.90;99.90;;;;;;5033764;28;20174;-83
2023/03/30 04:20:27;;;;;;;5.23;1.93;;;10.90;99.90;;;;;;5015089;28;20232;-82
2023/03/30 04:22:53;;;;;;;6.70;2.07;;;10.90;99.90;;;;;;5016424;28;20224;-83
2023/03/30 04:25:20;;;;;;;5.70;2.30;;;10.80;99.90;;;;;;5016155;28;20195;-83
2023/03/30 04:27:50;;;;;;;8.60;2.70;;;10.70;99.90;;;;;;5015803;28;20174;-82
2023/03/30 04:30:16;;;;;;;8.50;2.43;;;10.70;99.90;;;;;;5033242;28;20177;-83
2023/03/30 04:32:43;;;;;;;4.83;2.60;;;10.80;99.90;;;;;;5034224;28;20656;-83
2023/03/30 04:35:10;;;;;;;7.07;2.40;;;10.80;99.90;;;;;;5016080;28;20195;-83
2023/03/30 04:37:36;;;;;;;7.27;2.60;;;10.80;99.90;;;;;;5034194;28;20170;-83
2023/03/30 04:40:11;;;;;;;8.43;2.73;;;10.90;99.90;;;;;;5033957;28;20236;-83
2023/03/30 04:42:37;;;;;;;4.20;2.13;;;10.80;99.90;;;;;;5033751;28;20602;-85
2023/03/30 04:45:05;;;;;;;4.80;2.13;;;10.80;99.90;;;;;;5016398;28;20186;-82
2023/03/30 04:47:31;;;;;;;5.50;2.37;;;10.90;99.90;;;;;;5034046;28;20206;-82
2023/03/30 04:49:57;;;;;;;4.77;2.27;;;10.90;99.90;;;;;;5016067;28;20554;-82
2023/03/30 04:52:23;;;;;;;5.57;2.20;;;11.00;99.90;;;;;;5016590;28;20178;-81
2023/03/30 04:54:48;;;;;;;9.70;2.80;;;11.10;99.90;;;;;;5034275;28;20315;-82
2023/03/30 04:57:14;;;;;;;5.27;2.70;;;11.10;99.90;;;;;;5034359;28;20170;-83
2023/03/30 04:59:41;;;;;;;5.77;2.30;;;11.10;99.90;;;;;;5016239;28;20201;-83
2023/03/30 05:02:07;;;;;;;6.07;2.23;;;11.10;99.90;;;;;;5016196;28;20527;-83
2023/03/30 05:04:33;;;;;;;3.80;2.27;;;11.10;99.90;;;;;;5017097;28;20190;-83
2023/03/30 05:06:59;;;;;;;8.37;2.50;;;11.10;99.90;;;;;;5018101;28;20166;-83
2023/03/30 05:09:24;;;;;;;4.70;2.00;;;11.20;99.90;;;;;;5017997;28;20242;-85
2023/03/30 05:11:50;;;;;;;6.67;1.90;;;11.40;99.90;;;;;;5034144;28;20224;-82
2023/03/30 05:14:16;;;;;;;6.87;2.63;;;11.50;99.90;;;;;;5017142;28;20174;-82
2023/03/30 05:16:41;;;;;;;5.30;2.10;;;11.50;99.90;;;;;;5016703;28;20174;-83
2023/03/30 05:19:07;;;;;;;6.07;2.80;;;11.50;99.90;;;;;;5016922;28;20190;-83
2023/03/30 05:21:33;;;;;;;9.57;2.23;;;11.50;99.90;;;;;;5034892;28;20182;-84
2023/03/30 05:23:59;;;;;;;4.10;2.20;;;11.50;99.90;;;;;;5034946;28;20170;-83
2023/03/30 05:26:25;;;;;;;5.37;2.33;;;11.50;99.90;;;;;;5016667;28;20202;-82
2023/03/30 05:28:51;;;;;;;6.23;2.20;;;11.40;99.90;;;;;;5034740;28;20189;-82
2023/03/30 05:31:18;;;;;;;5.43;2.20;;;11.40;99.90;;;;;;5034843;28;20182;-83
2023/03/30 05:33:43;;;;;;;6.70;2.13;;;11.60;99.90;;;;;;5017691;28;20174;-83
2023/03/30 05:36:09;;;;;;;5.80;2.40;;;11.70;99.90;;;;;;5017555;28;20620;-83
2023/03/30 05:38:35;;;;;;;6.83;2.50;;;11.80;99.90;;;;;;5017588;28;20178;-82
2023/03/30 05:41:01;;;;;;;5.70;2.17;;;11.90;99.90;;;;;;5017813;28;20198;-82
2023/03/30 05:43:27;;;;;;;11.10;2.93;;;11.80;99.90;;;;;;5032672;28;20216;-81
2023/03/30 05:45:52;;;;;;;6.87;2.13;;;11.70;99.90;;;;;;5014357;28;20592;-81
2023/03/30 05:48:18;;;;;;;5.93;2.90;;;11.70;99.90;;;;;;5014725;28;20174;-81
2023/03/30 05:50:46;;;;;;;8.87;2.50;;;11.80;99.90;;;;;;5031746;28;20167;-80
2023/03/30 05:53:11;;;;;;;4.43;2.50;;;11.80;99.90;;;;;;5014742;28;20186;-83
2023/03/30 05:55:37;;;;;;;3.93;2.20;;;11.80;99.90;;;;;;5018041;28;20202;-83
2023/03/30 05:58:02;;;;;;;7.43;2.40;;;11.90;99.90;;;;;;5035799;28;20265;-83
2023/03/30 06:00:32;;;;;;;4.80;2.00;;;12.10;99.90;;;;;;5017636;28;20277;-82
2023/03/30 06:02:58;;;;;;;6.07;2.50;;;12.40;99.90;;;;;;5017969;28;20648;-82
2023/03/30 06:05:24;;;;;;;5.80;2.57;;;12.40;99.90;;;;;;5035467;28;20194;-84
2023/03/30 06:07:49;;;;;;;6.13;2.73;;;12.40;99.90;;;;;;5017605;28;20177;-84
2023/03/30 06:10:16;;;;;;;6.33;2.67;;;12.30;99.90;;;;;;5017456;28;20178;-82
2023/03/30 06:12:41;;;;;;;8.70;2.97;;;12.40;99.90;;;;;;5035345;28;20182;-81
2023/03/30 06:15:08;;;;;;;7.20;3.67;;;12.20;99.90;;;;;;5035464;28;20193;-81
2023/03/30 06:17:35;;;;;;;15.53;6.43;;;12.10;99.90;;;;;;5035583;28;20174;-81
2023/03/30 06:20:01;;;;;;;10.10;4.03;;;12.00;99.90;;;;;;5033947;28;20210;-81
2023/03/30 06:22:27;;;;;;;11.33;6.20;;;11.90;99.90;;;;;;5035629;28;20170;-81
2023/03/30 06:24:53;;;;;;;9.63;3.30;;;11.90;99.90;;;;;;5035320;28;20190;-81
2023/03/30 06:27:18;;;;;;;6.90;2.90;;;11.80;99.90;;;;;;5035203;28;20217;-80
2023/03/30 06:29:44;;;;;;;6.97;3.27;;;11.80;99.90;;;;;;5016885;28;20175;-81
2023/03/30 06:32:09;;;;;;;8.97;4.10;;;11.70;99.90;;;;;;5017488;28;20270;-81
2023/03/30 06:34:35;;;;;;;8.20;3.90;;;11.60;99.90;;;;;;5017804;28;20226;-81
2023/03/30 06:37:01;;;;;;;6.03;4.00;;;11.50;99.90;;;;;;5017692;28;20641;-81
2023/03/30 06:39:26;;;;;;;10.60;4.50;;;11.50;99.90;;;;;;5035042;28;20185;-82
2023/03/30 06:41:52;;;;;;;9.50;3.90;;;11.50;99.90;;;;;;5016412;28;20262;-82
2023/03/30 06:44:18;;;;;;;8.27;3.20;;;11.50;99.90;;;;;;5034592;28;20167;-81
2023/03/30 06:46:44;;;;;;;10.50;4.70;;;11.50;99.90;;;;;;5017309;28;20175;-83
2023/03/30 06:49:11;;;;;;;10.23;4.63;;;11.40;99.90;;;;;;5034929;28;20171;-83
2023/03/30 06:51:36;;;;;;;6.67;3.90;;;11.40;99.90;;;;;;5034329;28;20256;-82
2023/03/30 06:54:02;;;;;;;9.40;3.77;;;11.40;99.90;;;;;;5017105;28;20206;-80
2023/03/30 06:56:28;;;;;;;8.17;4.07;;;11.40;99.90;;;;;;5033567;28;20669;-80
2023/03/30 06:58:53;;;;;;;8.00;3.93;;;11.30;99.90;;;;;;5017046;28;20641;-81
2023/03/30 07:01:19;;;;;;;7.83;3.57;;;11.20;99.90;;;;;;5034293;28;20317;-81
2023/03/30 07:03:45;;;;;;;5.17;2.40;;;11.20;99.90;;;;;;5032800;28;20174;-81
2023/03/30 07:06:11;;;;;;;5.13;2.53;;;11.20;99.90;;;;;;5014804;28;20241;-78
2023/03/30 07:08:37;;;;;;;9.47;3.20;;;11.20;99.90;;;;;;5018964;28;20184;-81
2023/03/30 07:11:03;;;;;;;11.43;3.07;;;11.10;99.90;;;;;;5032001;28;20660;-80
2023/03/30 07:13:29;;;;;;;7.77;2.90;;;11.10;99.90;;;;;;5013944;28;20169;-81
2023/03/30 07:15:55;;;;;;;6.73;2.57;;;11.00;99.90;;;;;;5014965;28;20208;-81
2023/03/30 07:18:21;;;;;;;5.20;2.50;;;11.00;99.90;;;;;;5032124;28;20190;-81
2023/03/30 07:20:46;;;;;;;4.27;2.60;;;10.90;99.90;;;;;;5014616;28;20202;-81
2023/03/30 07:23:12;;;;;;;7.17;2.70;;;10.90;99.90;;;;;;5034545;28;20208;-81
2023/03/30 07:25:40;;;;;;;5.40;2.83;;;10.90;99.90;;;;;;5034216;28;20260;-81
2023/03/30 07:28:05;;;;;;;6.80;2.73;;;10.90;99.90;;;;;;5034461;28;20200;-81
2023/03/30 07:30:34;;;;;;;6.40;2.70;;;10.90;99.90;;;;;;5034070;28;20174;-81
2023/03/30 07:33:00;;;;;;;4.93;2.63;;;10.90;99.90;;;;;;5016870;28;20261;-81
2023/03/30 07:35:26;;;;;;;5.53;2.67;;;10.90;99.90;;;;;;5016838;28;20205;-81
2023/03/30 07:37:52;;;;;;;7.07;2.70;;;10.90;99.90;;;;;;5033468;28;20167;-82
2023/03/30 07:40:20;;;;;;;5.83;2.90;;;10.90;99.90;;;;;;5034131;28;20205;-81
2023/03/30 07:42:46;;;;;;;5.40;2.70;;;10.90;99.90;;;;;;5016940;28;20171;-81
2023/03/30 07:45:12;;;;;;;6.03;2.70;;;11.00;99.90;;;;;;5034354;28;20316;-81
2023/03/30 07:47:38;;;;;;;7.93;3.13;;;11.00;99.90;;;;;;5034735;28;20194;-81
2023/03/30 07:50:03;;;;;;;6.17;2.57;;;11.00;99.90;;;;;;5016196;28;20177;-81
2023/03/30 07:52:29;;;;;;;7.70;2.60;;;11.00;99.90;;;;;;5034384;28;20616;-81
2023/03/30 07:54:55;;;;;;;9.40;2.90;;;11.10;99.90;;;;;;5034267;28;20332;-81
2023/03/30 07:57:21;;;;;;;6.77;2.90;;;11.10;99.90;;;;;;5016607;28;20689;-82
2023/03/30 07:59:46;;;;;;;6.20;3.70;;;11.10;99.90;;;;;;5016116;28;20205;-80
2023/03/30 08:02:13;;;;;;;8.07;2.93;;;11.20;99.90;;;;;;5016372;28;20175;-81
2023/03/30 08:04:40;;;;;;;7.70;3.40;;;11.20;99.90;;;;;;5016235;28;20190;-82
2023/03/30 08:07:06;;;;;;;7.40;3.60;;;11.20;99.90;;;;;;5016121;28;20195;-81
2023/03/30 08:09:32;;;;;;;8.67;3.70;;;11.20;99.90;;;;;;5034173;28;20197;-80
2023/03/30 08:11:58;;;;;;;5.43;2.77;;;11.20;99.90;;;;;;5015744;28;20174;-81
2023/03/30 08:14:26;;;;;;;5.67;2.53;;;11.30;99.90;;;;;;5033886;28;20201;-81
2023/03/30 08:16:52;;;;;;;8.47;3.90;;;11.40;99.90;;;;;;5032863;28;20285;-81
2023/03/30 08:19:19;;;;;;;7.17;2.80;;;11.50;99.90;;;;;;5016630;28;20297;-82
2023/03/30 08:21:45;;;;;;;4.07;2.73;;;11.50;99.90;;;;;;5033944;28;20190;-81
2023/03/30 08:24:10;;;;;;;5.57;2.83;;;11.60;99.90;;;;;;5017025;28;20585;-82
2023/03/30 08:26:37;;;;;;;8.00;3.20;;;11.70;99.90;;;;;;5016673;28;20185;-82
2023/03/30 08:29:03;;;;;;;5.50;2.60;;;11.80;99.90;;;;;;5016705;28;20174;-82
2023/03/30 08:31:31;;;;;;;8.63;3.63;;;11.90;99.90;;;;;;5034361;28;20171;-81
2023/03/30 08:34:02;;;;;;;4.53;2.33;;;12.10;99.90;;;;;;5035433;28;20209;-82
2023/03/30 08:36:27;;;;;;;5.27;2.50;;;12.20;99.90;;;;;;5017272;28;20740;-81
2023/03/30 08:38:53;;;;;;;6.60;3.03;;;12.30;99.90;;;;;;5032907;28;20253;-82
2023/03/30 08:41:44;;;;;;;5.13;2.60;;;12.40;99.90;;;;;;5032011;28;20237;-81
2023/03/30 08:44:26;;;;;;;5.13;2.93;;;12.50;99.90;;;;;;5015190;28;20185;-81
2023/03/30 08:46:52;;;;;;;5.80;2.97;;;12.50;99.90;;;;;;5033167;28;20174;-82
2023/03/30 08:49:19;;;;;;;9.77;3.03;;;12.50;99.90;;;;;;5014784;28;20174;-82
2023/03/30 08:51:49;;;;;;;4.57;2.93;;;12.60;99.90;;;;;;5014218;28;20243;-81
2023/03/30 08:54:17;;;;;;;6.27;2.60;;;12.60;99.90;;;;;;5031022;28;20188;-82
2023/03/30 08:57:03;;;;;;;5.07;2.90;;;12.80;99.90;;;;;;5072111;22;20242;-80
2023/03/30 08:59:43;;;;;;;4.77;2.40;;;12.80;99.90;;;;;;5034829;28;20253;-78
2023/03/30 09:02:14;;;;;;;5.07;2.63;;;12.80;99.90;;;;;;5035509;28;20181;-80
2023/03/30 09:05:03;;;;;;;5.67;2.70;;;12.80;99.90;;;;;;5034557;28;20174;-79
2023/03/30 09:07:36;;;;;;;6.10;2.60;;;12.70;99.90;;;;;;5035534;28;20253;-80
2023/03/30 09:10:08;;;;;;;4.37;2.37;;;12.50;99.90;;;;;;5034308;28;20174;-80
2023/03/30 09:12:47;;;;;;;7.17;2.83;;;12.50;99.90;;;;;;5034760;28;20175;-80
2023/03/30 09:15:25;;;;;;;6.10;2.70;;;12.50;99.90;;;;;;5034776;28;20191;-80
2023/03/30 09:17:59;;;;;;;6.10;2.70;;;12.40;99.90;;;;;;5035204;28;20189;-80
2023/03/30 09:20:30;;;;;;;5.80;2.93;;;12.40;99.90;;;;;;5034101;28;20237;-81
2023/03/30 09:22:59;;;;;;;3.63;2.60;;;12.40;99.90;;;;;;5034108;28;20174;-80
2023/03/30 09:25:52;;;;;;;7.57;2.80;;;12.40;99.90;;;;;;5034537;28;20194;-80
2023/03/30 09:28:20;;;;;;;5.40;2.57;;;12.40;99.90;;;;;;5036608;28;20176;-78
2023/03/30 09:30:55;;;;;;;5.20;2.53;;;12.50;99.90;;;;;;5039871;28;20189;-79
2023/03/30 09:33:23;;;;;;;7.63;3.00;;;12.50;99.90;;;;;;5035268;28;20189;-80
2023/03/30 09:36:12;;;;;;;4.30;2.50;;;12.60;99.90;;;;;;5039255;28;20669;-79
2023/03/30 09:38:40;;;;;;;4.70;2.70;;;12.60;99.90;;;;;;5042237;28;20218;-80
2023/03/30 09:41:27;;;;;;;4.80;2.73;;;12.80;99.90;;;;;;5041174;28;20241;-79
2023/03/30 09:43:56;;;;;;;3.83;2.73;;;12.90;99.90;;;;;;5042206;28;20170;-79
2023/03/30 09:46:22;;;;;;;5.17;2.80;;;12.90;99.90;;;;;;5041419;28;20193;-79
2023/03/30 09:48:49;;;;;;;4.67;2.90;;;12.90;99.90;;;;;;5040114;28;20258;-80
2023/03/30 09:51:20;;;;;;;4.23;3.00;;;12.90;99.90;;;;;;5040222;28;20767;-81
2023/03/30 09:53:49;;;;;;;7.37;3.10;;;12.80;99.90;;;;;;5039146;28;20225;-80
2023/03/30 09:56:26;;;;;;;33.67;8.43;;;12.80;99.90;;;;;;5038575;28;20297;-81
2023/03/30 09:58:52;;;;;;;38.67;11.93;;;12.80;99.90;;;;;;5037425;28;20720;-80
2023/03/30 10:01:20;;;;;;;10.43;3.80;;;12.90;99.90;;;;;;5038348;28;20281;-81
2023/03/30 10:04:22;;;;;;;5.37;3.40;;;13.00;99.90;;;;;;5036897;28;20219;-84
2023/03/30 10:06:49;;;;;;;5.70;2.90;;;13.10;99.90;;;;;;4996046;28;20599;-80
2023/03/30 10:09:23;;;;;;;5.67;3.33;;;13.20;99.90;;;;;;5007170;28;20317;-81
2023/03/30 10:11:50;;;;;;;4.13;2.80;;;13.40;99.90;;;;;;5015170;28;20178;-80
2023/03/30 10:14:32;;;;;;;3.90;2.60;;;13.50;99.90;;;;;;5015371;28;20171;-80
2023/03/30 10:16:58;;;;;;;4.90;2.90;;;13.50;99.90;;;;;;5016995;28;20194;-82
2023/03/30 10:19:25;;;;;;;3.83;2.70;;;13.50;99.90;;;;;;5015255;28;20175;-82
2023/03/30 10:21:56;;;;;;;3.60;2.80;;;13.50;99.90;;;;;;5017478;28;20175;-78
2023/03/30 10:24:31;;;;;;;4.97;2.97;;;13.40;99.90;;;;;;5021102;28;20183;-80
2023/03/30 10:27:08;;;;;;;6.03;3.53;;;13.40;99.90;;;;;;5039243;28;20194;-81
2023/03/30 10:29:34;;;;;;;5.83;2.73;;;13.30;99.90;;;;;;5041718;28;20160;-81
2023/03/30 10:32:15;;;;;;;4.50;2.90;;;13.30;99.90;;;;;;5038185;28;20170;-79
2023/03/30 10:34:49;;;;;;;4.90;3.13;;;13.40;99.90;;;;;;5040185;28;20179;-79
2023/03/30 10:37:20;;;;;;;5.30;3.00;;;13.40;99.90;;;;;;5038411;28;20206;-80
2023/03/30 10:39:47;;;;;;;5.00;3.03;;;13.40;99.90;;;;;;5036925;28;20195;-80
2023/03/30 10:42:23;;;;;;;6.03;3.00;;;13.40;99.90;;;;;;5040336;28;20190;-79
2023/03/30 10:44:55;;;;;;;7.40;3.17;;;13.30;99.90;;;;;;5038392;28;20170;-79
2023/03/30 10:47:24;;;;;;;4.87;3.30;;;13.30;99.90;;;;;;5038919;28;20625;-79
2023/03/30 10:50:11;;;;;;;5.63;2.50;;;13.20;99.90;;;;;;5037954;28;20179;-77
2023/03/30 10:53:05;;;;;;;5.17;2.87;;;13.20;99.90;;;;;;5040216;28;20167;-80
2023/03/30 10:55:55;;;;;;;4.73;2.93;;;13.20;99.90;;;;;;5029674;28;20206;-79
2023/03/30 10:58:43;;;;;;;3.43;3.00;;;13.30;99.90;;;;;;5039923;28;20162;-79
2023/03/30 11:01:28;;;;;;;4.47;2.80;;;13.40;99.90;;;;;;5037492;28;20194;-79
2023/03/30 11:03:59;;;;;;;5.83;3.40;;;13.40;99.90;;;;;;5040250;28;20234;-80
2023/03/30 11:06:38;;;;;;;5.20;3.17;;;13.40;99.90;;;;;;5042798;28;20273;-79
2023/03/30 11:09:09;;;;;;;5.27;3.67;;;13.40;99.90;;;;;;5038083;28;20170;-79
2023/03/30 11:11:48;;;;;;;5.50;3.20;;;13.90;99.90;;;;;;5041265;28;20183;-79
2023/03/30 11:14:27;;;;;;;5.53;2.70;;;14.40;99.90;;;;;;5042843;28;20163;-79
2023/03/30 11:17:00;;;;;;;7.33;3.30;;;14.50;99.90;;;;;;5041820;28;20198;-79
2023/03/30 11:19:41;;;;;;;6.57;2.77;;;14.30;99.90;;;;;;5043862;28;20175;-79
2023/03/30 11:22:14;;;;;;;5.23;2.90;;;14.30;99.90;;;;;;5042707;28;20186;-79
2023/03/30 11:24:42;;;;;;;5.53;3.03;;;14.10;99.90;;;;;;5043677;28;20660;-78
2023/03/30 11:27:24;;;;;;;4.93;2.93;;;14.10;99.90;;;;;;5041162;28;20174;-79
2023/03/30 11:29:58;;;;;;;4.47;2.60;;;14.20;99.90;;;;;;5040193;28;20188;-81
2023/03/30 11:32:49;;;;;;;3.27;2.43;;;14.30;99.90;;;;;;5041386;28;20535;-80
2023/03/30 11:35:18;;;;;;;3.47;2.70;;;14.20;99.90;;;;;;5038361;28;20190;-80
2023/03/30 11:38:18;;;;;;;4.33;2.97;;;14.20;99.90;;;;;;5039315;28;20194;-80
2023/03/30 11:40:50;;;;;;;7.00;3.10;;;14.20;99.90;;;;;;5015958;28;20224;-80
2023/03/30 11:43:18;;;;;;;3.83;2.57;;;14.20;99.90;;;;;;5037442;28;20293;-80
2023/03/30 11:45:53;;;;;;;4.80;2.60;;;14.40;99.90;;;;;;5033538;28;20199;-80
2023/03/30 11:49:03;;;;;;;4.10;2.60;;;14.50;99.90;;;;;;5017831;28;20265;-80
2023/03/30 11:51:37;;;;;;;4.27;2.33;;;14.50;99.90;;;;;;5016286;28;20167;-80
2023/03/30 11:54:34;;;;;;;5.07;2.60;;;14.50;99.90;;;;;;5017865;28;20171;-80
2023/03/30 11:57:17;;;;;;;4.63;2.80;;;14.80;99.90;;;;;;5017295;28;20206;-80
2023/03/30 12:00:07;;;;;;;4.10;2.53;;;14.80;99.90;;;;;;5018037;28;20194;-81
2023/03/30 12:02:38;;;;;;;3.37;2.47;;;15.00;99.90;;;;;;5018633;28;20159;-80
2023/03/30 12:05:20;;;;;;;4.60;2.13;;;15.20;99.90;;;;;;5017330;28;20191;-80
2023/03/30 12:08:15;;;;;;;3.63;2.30;;;15.20;99.90;;;;;;5016893;28;20556;-80
2023/03/30 12:10:46;;;;;;;5.97;2.40;;;14.90;99.90;;;;;;5015530;28;20273;-80
2023/03/30 12:13:17;;;;;;;4.90;2.50;;;14.90;99.90;;;;;;5017139;28;20265;-80
2023/03/30 12:16:05;;;;;;;5.13;2.50;;;15.00;99.90;;;;;;5018918;28;20262;-80
2023/03/30 12:18:55;;;;;;;4.23;2.13;;;15.10;99.90;;;;;;5017320;28;20553;-80
2023/03/30 12:21:53;;;;;;;3.50;2.00;;;15.10;99.90;;;;;;5018016;28;20183;-80
2023/03/30 12:24:28;;;;;;;3.27;1.90;;;15.40;99.90;;;;;;5017036;28;20195;-80
2023/03/30 12:26:55;;;;;;;3.50;1.97;;;15.70;99.90;;;;;;5016575;28;20221;-80
2023/03/30 12:29:20;;;;;;;3.00;1.67;;;15.80;99.90;;;;;;5018000;28;20173;-80
2023/03/30 12:31:50;;;;;;;3.53;1.80;;;16.10;99.90;;;;;;5016984;28;20187;-79
2023/03/30 12:34:16;;;;;;;2.93;1.83;;;16.50;99.90;;;;;;5019082;28;20175;-79
2023/03/30 12:36:52;;;;;;;4.63;1.97;;;16.30;99.90;;;;;;5019744;28;20206;-79
2023/03/30 12:39:49;;;;;;;3.80;1.90;;;16.00;99.90;;;;;;5017630;28;20186;-79
2023/03/30 12:42:26;;;;;;;2.73;1.67;;;15.70;99.90;;;;;;5016747;28;20186;-79
2023/03/30 12:45:10;;;;;;;4.27;1.87;;;15.30;99.90;;;;;;5016396;28;20233;-78
2023/03/30 12:48:03;;;;;;;1.20;0.70;;;15.10;99.90;;;;;;5035400;28;20269;-78
2023/03/30 12:50:54;;;;;;;0.90;0.70;;;14.20;99.90;;;;;;5036356;28;20170;-79
2023/03/30 12:53:33;;;;;;;2.40;1.23;;;12.90;99.90;;;;;;5037952;28;20300;-78
2023/03/30 12:56:07;;;;;;;3.03;0.80;;;12.10;99.90;;;;;;5036815;28;20728;-78
2023/03/30 12:58:59;;;;;;;0.80;0.70;;;11.10;99.90;;;;;;5038071;28;20178;-78
2023/03/30 13:01:50;;;;;;;0.70;0.60;;;10.60;99.90;;;;;;5037568;28;20196;-78
2023/03/30 13:04:23;;;;;;;1.03;0.63;;;10.40;99.90;;;;;;5036481;28;20170;-79
2023/03/30 13:06:55;;;;;;;1.73;0.70;;;10.40;99.90;;;;;;5036502;28;20240;-78
2023/03/30 13:09:24;;;;;;;1.27;0.90;;;10.40;99.90;;;;;;5036664;28;20329;-78